sensor_id;sensor_type;location;lat;lon;timestamp;pressure;altitude;pressure_sealevel;temperature;humidity
6216;BME280;3141;49.234;9.326;2023-02-12T00:00:42;101720.88;;;8.46;69.97
6216;BME280;3141;49.234;9.326;2023-02-12T00:01:25;101715.81;;;8.43;70.06
6216;BME280;3141;49.234;9.326;2023-02-12T00:02:09;101717.56;;;8.29;70.91
6216;BME280;3141;49.234;9.326;2023-02-12T00:02:51;101719.97;;;8.17;71.56
6216;BME280;3141;49.234;9.326;2023-02-12T00:03:34;101720.41;;;8.10;71.90
6216;BME280;3141;49.234;9.326;2023-02-12T00:04:17;101728.41;;;8.08;72.02
6216;BME280;3141;49.234;9.326;2023-02-12T00:04:59;101730.97;;;8.10;72.09
6216;BME280;3141;49.234;9.326;2023-02-12T00:05:41;101729.28;;;8.09;72.34
6216;BME280;3141;49.234;9.326;2023-02-12T00:06:24;101723.81;;;8.12;72.45
6216;BME280;3141;49.234;9.326;2023-02-12T00:07:06;101717.84;;;8.24;71.94
6216;BME280;3141;49.234;9.326;2023-02-12T00:07:49;101718.53;;;8.28;71.74
6216;BME280;3141;49.234;9.326;2023-02-12T00:08:31;101711.47;;;8.28;71.34
6216;BME280;3141;49.234;9.326;2023-02-12T00:09:13;101716.66;;;8.30;71.13
6216;BME280;3141;49.234;9.326;2023-02-12T00:09:55;101710.31;;;8.32;71.04
6216;BME280;3141;49.234;9.326;2023-02-12T00:10:41;101713.81;;;8.33;71.19
6216;BME280;3141;49.234;9.326;2023-02-12T00:11:26;101708.34;;;8.36;71.32
6216;BME280;3141;49.234;9.326;2023-02-12T00:12:09;101723.16;;;8.38;70.80
6216;BME280;3141;49.234;9.326;2023-02-12T00:12:54;101706.25;;;8.27;71.26
6216;BME280;3141;49.234;9.326;2023-02-12T00:13:36;101715.78;;;8.29;71.32
6216;BME280;3141;49.234;9.326;2023-02-12T00:14:19;101716.81;;;8.27;71.33
6216;BME280;3141;49.234;9.326;2023-02-12T00:15:01;101710.75;;;8.10;71.92
6216;BME280;3141;49.234;9.326;2023-02-12T00:15:43;101715.34;;;8.07;72.44
6216;BME280;3141;49.234;9.326;2023-02-12T00:16:27;101720.75;;;8.19;72.01
6216;BME280;3141;49.234;9.326;2023-02-12T00:17:09;101722.25;;;8.24;71.70
6216;BME280;3141;49.234;9.326;2023-02-12T00:17:52;101717.91;;;8.23;71.87
6216;BME280;3141;49.234;9.326;2023-02-12T00:18:34;101717.25;;;8.19;71.92
6216;BME280;3141;49.234;9.326;2023-02-12T00:19:17;101707.47;;;8.21;72.03
6216;BME280;3141;49.234;9.326;2023-02-12T00:19:59;101709.16;;;8.22;72.07
6216;BME280;3141;49.234;9.326;2023-02-12T00:20:42;101712.38;;;8.27;71.88
6216;BME280;3141;49.234;9.326;2023-02-12T00:21:24;101716.75;;;8.28;71.81
6216;BME280;3141;49.234;9.326;2023-02-12T00:22:07;101710.63;;;8.28;71.66
6216;BME280;3141;49.234;9.326;2023-02-12T00:22:49;101712.91;;;8.18;71.86
6216;BME280;3141;49.234;9.326;2023-02-12T00:23:31;101717.16;;;8.20;71.95
6216;BME280;3141;49.234;9.326;2023-02-12T00:24:13;101715.38;;;8.21;71.65
6216;BME280;3141;49.234;9.326;2023-02-12T00:24:56;101721.75;;;8.17;71.74
6216;BME280;3141;49.234;9.326;2023-02-12T00:25:41;101724.66;;;8.12;71.91
6216;BME280;3141;49.234;9.326;2023-02-12T00:26:24;101716.00;;;8.10;72.42
6216;BME280;3141;49.234;9.326;2023-02-12T00:27:06;101716.00;;;8.10;72.39
6216;BME280;3141;49.234;9.326;2023-02-12T00:27:48;101708.88;;;8.12;72.43
6216;BME280;3141;49.234;9.326;2023-02-12T00:28:31;101716.78;;;8.12;72.46
6216;BME280;3141;49.234;9.326;2023-02-12T00:29:13;101715.16;;;8.10;72.62
6216;BME280;3141;49.234;9.326;2023-02-12T00:29:55;101714.81;;;8.16;72.34
6216;BME280;3141;49.234;9.326;2023-02-12T00:30:38;101717.00;;;8.24;72.00
6216;BME280;3141;49.234;9.326;2023-02-12T00:31:23;101714.25;;;8.25;71.82
6216;BME280;3141;49.234;9.326;2023-02-12T00:32:06;101710.09;;;8.21;71.76
6216;BME280;3141;49.234;9.326;2023-02-12T00:32:48;101717.84;;;8.24;71.86
6216;BME280;3141;49.234;9.326;2023-02-12T00:33:30;101714.41;;;8.22;71.87
6216;BME280;3141;49.234;9.326;2023-02-12T00:34:13;101704.41;;;8.13;72.43
6216;BME280;3141;49.234;9.326;2023-02-12T00:34:55;101709.22;;;8.06;72.41
6216;BME280;3141;49.234;9.326;2023-02-12T00:35:37;101703.59;;;8.12;72.53
6216;BME280;3141;49.234;9.326;2023-02-12T00:36:22;101709.69;;;8.13;72.45
6216;BME280;3141;49.234;9.326;2023-02-12T00:37:05;101714.97;;;8.13;72.59
6216;BME280;3141;49.234;9.326;2023-02-12T00:37:47;101705.94;;;8.17;72.24
6216;BME280;3141;49.234;9.326;2023-02-12T00:38:30;101707.47;;;8.21;72.01
6216;BME280;3141;49.234;9.326;2023-02-12T00:39:12;101710.81;;;8.25;72.05
6216;BME280;3141;49.234;9.326;2023-02-12T00:39:54;101711.53;;;8.27;71.89
6216;BME280;3141;49.234;9.326;2023-02-12T00:40:37;101712.19;;;8.30;71.93
6216;BME280;3141;49.234;9.326;2023-02-12T00:41:20;101712.88;;;8.34;71.51
6216;BME280;3141;49.234;9.326;2023-02-12T00:42:03;101715.44;;;8.35;71.46
6216;BME280;3141;49.234;9.326;2023-02-12T00:42:46;101717.13;;;8.36;71.22
6216;BME280;3141;49.234;9.326;2023-02-12T00:43:28;101715.03;;;8.27;71.57
6216;BME280;3141;49.234;9.326;2023-02-12T00:44:10;101710.72;;;8.26;71.70
6216;BME280;3141;49.234;9.326;2023-02-12T00:44:53;101711.78;;;8.22;71.92
6216;BME280;3141;49.234;9.326;2023-02-12T00:45:35;101714.09;;;8.28;71.68
6216;BME280;3141;49.234;9.326;2023-02-12T00:46:20;101712.50;;;8.26;71.75
6216;BME280;3141;49.234;9.326;2023-02-12T00:47:04;101712.50;;;8.26;71.82
6216;BME280;3141;49.234;9.326;2023-02-12T00:47:46;101714.94;;;8.29;71.66
6216;BME280;3141;49.234;9.326;2023-02-12T00:48:28;101709.66;;;8.29;71.70
6216;BME280;3141;49.234;9.326;2023-02-12T00:49:11;101719.19;;;8.31;71.62
6216;BME280;3141;49.234;9.326;2023-02-12T00:49:53;101720.72;;;8.35;71.52
6216;BME280;3141;49.234;9.326;2023-02-12T00:50:35;101716.34;;;8.34;71.29
6216;BME280;3141;49.234;9.326;2023-02-12T00:51:18;101710.06;;;8.37;71.31
6216;BME280;3141;49.234;9.326;2023-02-12T00:52:01;101716.25;;;8.36;71.39
6216;BME280;3141;49.234;9.326;2023-02-12T00:52:44;101710.06;;;8.37;71.41
6216;BME280;3141;49.234;9.326;2023-02-12T00:53:26;101712.59;;;8.38;71.55
6216;BME280;3141;49.234;9.326;2023-02-12T00:54:08;101714.38;;;8.38;71.78
6216;BME280;3141;49.234;9.326;2023-02-12T00:54:51;101709.13;;;8.38;71.52
6216;BME280;3141;49.234;9.326;2023-02-12T00:55:34;101711.66;;;8.39;71.54
6216;BME280;3141;49.234;9.326;2023-02-12T00:56:16;101713.47;;;8.39;71.64
6216;BME280;3141;49.234;9.326;2023-02-12T00:56:58;101711.66;;;8.39;71.51
6216;BME280;3141;49.234;9.326;2023-02-12T00:57:41;101715.06;;;8.41;71.44
6216;BME280;3141;49.234;9.326;2023-02-12T00:58:23;101718.34;;;8.45;71.33
6216;BME280;3141;49.234;9.326;2023-02-12T00:59:06;101714.97;;;8.43;71.37
6216;BME280;3141;49.234;9.326;2023-02-12T00:59:48;101711.47;;;8.42;71.39
6216;BME280;3141;49.234;9.326;2023-02-12T01:00:30;101719.56;;;8.39;71.63
6216;BME280;3141;49.234;9.326;2023-02-12T01:01:13;101716.72;;;8.42;71.74
6216;BME280;3141;49.234;9.326;2023-02-12T01:01:55;101715.06;;;8.41;71.52
6216;BME280;3141;49.234;9.326;2023-02-12T01:02:38;101713.19;;;8.43;71.35
6216;BME280;3141;49.234;9.326;2023-02-12T01:03:20;101714.75;;;8.46;71.44
6216;BME280;3141;49.234;9.326;2023-02-12T01:04:03;101712.13;;;8.46;71.55
6216;BME280;3141;49.234;9.326;2023-02-12T01:04:45;101716.84;;;8.41;71.42
6216;BME280;3141;49.234;9.326;2023-02-12T01:05:28;101713.38;;;8.40;71.48
6216;BME280;3141;49.234;9.326;2023-02-12T01:06:10;101718.44;;;8.43;71.30
6216;BME280;3141;49.234;9.326;2023-02-12T01:06:52;101710.44;;;8.45;71.29
6216;BME280;3141;49.234;9.326;2023-02-12T01:07:35;101717.50;;;8.44;71.35
6216;BME280;3141;49.234;9.326;2023-02-12T01:08:19;101721.38;;;8.39;71.29
6216;BME280;3141;49.234;9.326;2023-02-12T01:09:01;101714.19;;;8.41;71.37
6216;BME280;3141;49.234;9.326;2023-02-12T01:09:44;101724.56;;;8.44;71.21
6216;BME280;3141;49.234;9.326;2023-02-12T01:10:26;101721.09;;;8.43;71.20
6216;BME280;3141;49.234;9.326;2023-02-12T01:11:11;101725.50;;;8.43;71.05
6216;BME280;3141;49.234;9.326;2023-02-12T01:11:54;101722.00;;;8.42;70.93
6216;BME280;3141;49.234;9.326;2023-02-12T01:12:36;101719.38;;;8.42;70.99
6216;BME280;3141;49.234;9.326;2023-02-12T01:13:18;101723.16;;;8.38;71.15
6216;BME280;3141;49.234;9.326;2023-02-12T01:14:01;101722.19;;;8.39;71.15
6216;BME280;3141;49.234;9.326;2023-02-12T01:14:43;101720.72;;;8.35;71.17
6216;BME280;3141;49.234;9.326;2023-02-12T01:15:26;101721.38;;;8.39;71.18
6216;BME280;3141;49.234;9.326;2023-02-12T01:16:51;101719.47;;;8.41;71.00
6216;BME280;3141;49.234;9.326;2023-02-12T01:17:34;101722.88;;;8.43;71.01
6216;BME280;3141;49.234;9.326;2023-02-12T01:18:16;101723.53;;;8.46;70.91
6216;BME280;3141;49.234;9.326;2023-02-12T01:18:58;101721.09;;;8.43;70.90
6216;BME280;3141;49.234;9.326;2023-02-12T01:19:41;101716.16;;;8.37;71.06
6216;BME280;3141;49.234;9.326;2023-02-12T01:20:24;101714.78;;;8.32;71.27
6216;BME280;3141;49.234;9.326;2023-02-12T01:21:09;101722.38;;;8.36;71.32
6216;BME280;3141;49.234;9.326;2023-02-12T01:21:51;101718.81;;;8.37;71.33
6216;BME280;3141;49.234;9.326;2023-02-12T01:22:34;101715.25;;;8.38;71.25
6216;BME280;3141;49.234;9.326;2023-02-12T01:23:17;101717.88;;;8.38;70.87
6216;BME280;3141;49.234;9.326;2023-02-12T01:24:00;101724.00;;;8.39;70.78
6216;BME280;3141;49.234;9.326;2023-02-12T01:24:42;101714.38;;;8.38;70.95
6216;BME280;3141;49.234;9.326;2023-02-12T01:25:25;101731.16;;;8.37;71.00
6216;BME280;3141;49.234;9.326;2023-02-12T01:26:08;101725.97;;;8.35;71.02
6216;BME280;3141;49.234;9.326;2023-02-12T01:26:53;101730.28;;;8.36;71.21
6216;BME280;3141;49.234;9.326;2023-02-12T01:27:36;101729.34;;;8.37;71.22
6216;BME280;3141;49.234;9.326;2023-02-12T01:28:18;101720.72;;;8.35;71.31
6216;BME280;3141;49.234;9.326;2023-02-12T01:29:03;101727.69;;;8.20;72.01
6216;BME280;3141;49.234;9.326;2023-02-12T01:29:46;101726.00;;;8.19;71.78
6216;BME280;3141;49.234;9.326;2023-02-12T01:30:28;101721.56;;;8.20;71.90
6216;BME280;3141;49.234;9.326;2023-02-12T01:31:13;101720.50;;;8.24;71.90
6216;BME280;3141;49.234;9.326;2023-02-12T01:31:56;101717.66;;;8.27;71.59
6216;BME280;3141;49.234;9.326;2023-02-12T01:32:38;101723.50;;;8.32;71.37
6216;BME280;3141;49.234;9.326;2023-02-12T01:33:20;101728.78;;;8.32;71.33
6216;BME280;3141;49.234;9.326;2023-02-12T01:34:05;101725.13;;;8.35;71.50
6216;BME280;3141;49.234;9.326;2023-02-12T01:34:47;101729.28;;;8.39;71.02
6216;BME280;3141;49.234;9.326;2023-02-12T01:35:30;101731.06;;;8.38;70.97
6216;BME280;3141;49.234;9.326;2023-02-12T01:36:12;101724.44;;;8.31;71.09
6216;BME280;3141;49.234;9.326;2023-02-12T01:36:54;101729.91;;;8.28;71.19
6216;BME280;3141;49.234;9.326;2023-02-12T01:37:37;101722.41;;;8.20;71.66
6216;BME280;3141;49.234;9.326;2023-02-12T01:38:19;101729.19;;;8.10;72.05
6216;BME280;3141;49.234;9.326;2023-02-12T01:39:03;101727.22;;;8.14;72.14
6216;BME280;3141;49.234;9.326;2023-02-12T01:39:45;101725.16;;;8.19;71.85
6216;BME280;3141;49.234;9.326;2023-02-12T01:40:28;101725.91;;;8.21;71.85
6216;BME280;3141;49.234;9.326;2023-02-12T01:41:14;101724.81;;;8.25;71.79
6216;BME280;3141;49.234;9.326;2023-02-12T01:41:58;101721.91;;;8.30;71.64
6216;BME280;3141;49.234;9.326;2023-02-12T01:42:40;101716.81;;;8.27;71.50
6216;BME280;3141;49.234;9.326;2023-02-12T01:43:22;101722.94;;;8.27;71.45
6216;BME280;3141;49.234;9.326;2023-02-12T01:45:58;101719.00;;;8.34;71.44
6216;BME280;3141;49.234;9.326;2023-02-12T01:46:41;101722.38;;;8.36;71.25
6216;BME280;3141;49.234;9.326;2023-02-12T01:47:24;101724.16;;;8.36;71.06
6216;BME280;3141;49.234;9.326;2023-02-12T01:48:06;101720.50;;;8.38;71.24
6216;BME280;3141;49.234;9.326;2023-02-12T01:48:49;101718.81;;;8.37;70.96
6216;BME280;3141;49.234;9.326;2023-02-12T01:49:38;101719.75;;;8.36;71.14
6216;BME280;3141;49.234;9.326;2023-02-12T01:50:21;101713.81;;;8.33;70.97
6216;BME280;3141;49.234;9.326;2023-02-12T01:51:06;101715.78;;;8.29;71.00
6216;BME280;3141;49.234;9.326;2023-02-12T01:51:54;101716.28;;;8.20;71.44
6216;BME280;3141;49.234;9.326;2023-02-12T01:52:43;101713.94;;;8.15;71.86
6216;BME280;3141;49.234;9.326;2023-02-12T01:53:30;101709.31;;;8.05;72.55
6216;BME280;3141;49.234;9.326;2023-02-12T01:54:16;101711.75;;;8.08;72.59
6216;BME280;3141;49.234;9.326;2023-02-12T01:55:04;101716.09;;;8.09;72.46
6216;BME280;3141;49.234;9.326;2023-02-12T01:55:52;101709.69;;;8.13;72.23
6216;BME280;3141;49.234;9.326;2023-02-12T01:56:36;101711.50;;;8.12;72.40
6216;BME280;3141;49.234;9.326;2023-02-12T01:57:19;101710.25;;;8.18;72.30
6216;BME280;3141;49.234;9.326;2023-02-12T01:58:03;101709.34;;;8.19;72.32
6216;BME280;3141;49.234;9.326;2023-02-12T01:58:47;101711.97;;;8.19;72.21
6216;BME280;3141;49.234;9.326;2023-02-12T01:59:34;101710.88;;;8.23;72.21
6216;BME280;3141;49.234;9.326;2023-02-12T02:00:20;101712.50;;;8.26;71.68
6216;BME280;3141;49.234;9.326;2023-02-12T02:01:05;101713.34;;;8.26;71.92
6216;BME280;3141;49.234;9.326;2023-02-12T02:01:49;101709.00;;;8.25;71.53
6216;BME280;3141;49.234;9.326;2023-02-12T02:02:31;101714.09;;;8.28;71.66
6216;BME280;3141;49.234;9.326;2023-02-12T02:03:15;101713.25;;;8.28;71.91
6216;BME280;3141;49.234;9.326;2023-02-12T02:04:00;101716.66;;;8.30;71.66
6216;BME280;3141;49.234;9.326;2023-02-12T02:04:47;101721.81;;;8.31;71.54
6216;BME280;3141;49.234;9.326;2023-02-12T02:05:46;101714.69;;;8.33;71.37
6216;BME280;3141;49.234;9.326;2023-02-12T02:06:33;101727.47;;;8.39;71.32
6216;BME280;3141;49.234;9.326;2023-02-12T02:07:16;101725.59;;;8.41;70.95
6216;BME280;3141;49.234;9.326;2023-02-12T02:07:58;101713.53;;;8.37;71.17
6216;BME280;3141;49.234;9.326;2023-02-12T02:08:41;101720.50;;;8.38;71.29
6216;BME280;3141;49.234;9.326;2023-02-12T02:09:24;101713.72;;;8.34;71.64
6216;BME280;3141;49.234;9.326;2023-02-12T02:10:07;101711.94;;;8.35;71.45
6216;BME280;3141;49.234;9.326;2023-02-12T02:10:50;101710.16;;;8.35;71.48
6216;BME280;3141;49.234;9.326;2023-02-12T02:11:32;101711.09;;;8.34;71.41
6216;BME280;3141;49.234;9.326;2023-02-12T02:12:34;101708.66;;;8.31;71.62
6216;BME280;3141;49.234;9.326;2023-02-12T02:13:35;101709.22;;;8.36;71.52
6216;BME280;3141;49.234;9.326;2023-02-12T02:14:37;101711.66;;;8.39;71.27
6216;BME280;3141;49.234;9.326;2023-02-12T02:15:20;101712.72;;;8.37;71.38
6216;BME280;3141;49.234;9.326;2023-02-12T02:16:19;101707.25;;;8.40;71.27
6216;BME280;3141;49.234;9.326;2023-02-12T02:18:01;101710.63;;;8.42;71.18
6216;BME280;3141;49.234;9.326;2023-02-12T02:19:01;101708.81;;;8.42;71.06
6216;BME280;3141;49.234;9.326;2023-02-12T02:22:00;101707.69;;;8.32;71.27
6216;BME280;3141;49.234;9.326;2023-02-12T02:26:49;101705.72;;;8.36;71.43
6216;BME280;3141;49.234;9.326;2023-02-12T02:27:59;101702.25;;;8.35;71.39
6216;BME280;3141;49.234;9.326;2023-02-12T02:29:03;101693.03;;;8.28;71.84
6216;BME280;3141;49.234;9.326;2023-02-12T02:31:20;101697.72;;;8.37;71.43
6216;BME280;3141;49.234;9.326;2023-02-12T02:32:30;101702.94;;;8.39;71.30
6216;BME280;3141;49.234;9.326;2023-02-12T02:34:24;101696.47;;;8.29;71.94
6216;BME280;3141;49.234;9.326;2023-02-12T02:35:27;101703.81;;;8.24;72.08
6216;BME280;3141;49.234;9.326;2023-02-12T02:36:14;101706.34;;;8.25;71.96
6216;BME280;3141;49.234;9.326;2023-02-12T02:37:33;101704.75;;;8.23;72.03
6216;BME280;3141;49.234;9.326;2023-02-12T02:38:27;101699.56;;;8.21;72.24
6216;BME280;3141;49.234;9.326;2023-02-12T02:39:49;101698.63;;;8.22;72.01
6216;BME280;3141;49.234;9.326;2023-02-12T02:40:40;101704.75;;;8.23;71.69
6216;BME280;3141;49.234;9.326;2023-02-12T02:41:37;101701.09;;;8.25;71.87
6216;BME280;3141;49.234;9.326;2023-02-12T02:43:28;101705.25;;;8.29;71.75
6216;BME280;3141;49.234;9.326;2023-02-12T02:44:22;101701.09;;;8.25;71.63
6216;BME280;3141;49.234;9.326;2023-02-12T02:45:18;101694.72;;;8.29;71.62
6216;BME280;3141;49.234;9.326;2023-02-12T02:46:17;101699.41;;;8.24;71.73
6216;BME280;3141;49.234;9.326;2023-02-12T02:47:04;101695.66;;;8.28;71.50
6216;BME280;3141;49.234;9.326;2023-02-12T02:47:59;101699.78;;;8.32;71.32
6216;BME280;3141;49.234;9.326;2023-02-12T02:48:48;101692.06;;;8.29;71.42
6216;BME280;3141;49.234;9.326;2023-02-12T02:49:37;101695.97;;;8.22;71.76
6216;BME280;3141;49.234;9.326;2023-02-12T02:50:23;101702.75;;;8.12;72.16
6216;BME280;3141;49.234;9.326;2023-02-12T02:51:13;101691.53;;;8.08;72.41
6216;BME280;3141;49.234;9.326;2023-02-12T02:52:03;101693.16;;;8.11;72.39
6216;BME280;3141;49.234;9.326;2023-02-12T02:53:48;101698.59;;;8.08;72.72
6216;BME280;3141;49.234;9.326;2023-02-12T02:54:35;101692.56;;;8.06;72.72
6216;BME280;3141;49.234;9.326;2023-02-12T02:55:21;101695.19;;;8.06;72.69
6216;BME280;3141;49.234;9.326;2023-02-12T02:56:07;101697.66;;;8.09;72.58
6216;BME280;3141;49.234;9.326;2023-02-12T02:56:57;101701.06;;;8.11;72.73
6216;BME280;3141;49.234;9.326;2023-02-12T02:58:38;101702.34;;;8.04;72.80
6216;BME280;3141;49.234;9.326;2023-02-12T02:59:32;101701.06;;;8.11;72.46
6216;BME280;3141;49.234;9.326;2023-02-12T03:00:19;101703.31;;;8.17;72.58
6216;BME280;3141;49.234;9.326;2023-02-12T03:01:09;101710.09;;;8.21;72.09
6216;BME280;3141;49.234;9.326;2023-02-12T03:01:59;101706.63;;;8.20;71.87
6216;BME280;3141;49.234;9.326;2023-02-12T03:02:48;101706.72;;;8.19;71.81
6216;BME280;3141;49.234;9.326;2023-02-12T03:03:40;101713.56;;;8.21;71.74
6216;BME280;3141;49.234;9.326;2023-02-12T03:04:30;101708.47;;;8.18;71.79
6216;BME280;3141;49.234;9.326;2023-02-12T03:05:25;101713.66;;;8.20;71.51
6216;BME280;3141;49.234;9.326;2023-02-12T03:06:14;101713.75;;;8.18;71.74
6216;BME280;3141;49.234;9.326;2023-02-12T03:07:03;101719.50;;;8.11;71.89
6216;BME280;3141;49.234;9.326;2023-02-12T03:07:55;101709.88;;;8.10;72.33
6216;BME280;3141;49.234;9.326;2023-02-12T03:08:42;101703.50;;;8.14;72.10
6216;BME280;3141;49.234;9.326;2023-02-12T03:09:38;101711.00;;;8.06;72.66
6216;BME280;3141;49.234;9.326;2023-02-12T03:10:26;101707.63;;;8.04;72.63
6216;BME280;3141;49.234;9.326;2023-02-12T03:11:13;101705.16;;;8.01;72.61
6216;BME280;3141;49.234;9.326;2023-02-12T03:12:02;101714.19;;;7.97;73.26
6216;BME280;3141;49.234;9.326;2023-02-12T03:12:58;101718.94;;;7.90;73.61
6216;BME280;3141;49.234;9.326;2023-02-12T03:13:47;101715.47;;;7.90;73.87
6216;BME280;3141;49.234;9.326;2023-02-12T03:14:37;101716.81;;;7.97;73.78
6216;BME280;3141;49.234;9.326;2023-02-12T03:15:37;101709.25;;;7.91;73.60
6216;BME280;3141;49.234;9.326;2023-02-12T03:16:22;101715.00;;;7.97;73.65
6216;BME280;3141;49.234;9.326;2023-02-12T03:17:13;101713.81;;;8.03;73.43
6216;BME280;3141;49.234;9.326;2023-02-12T03:17:59;101706.47;;;8.08;73.28
6216;BME280;3141;49.234;9.326;2023-02-12T03:18:50;101713.38;;;8.10;73.23
6216;BME280;3141;49.234;9.326;2023-02-12T03:19:39;101715.81;;;8.13;72.86
6216;BME280;3141;49.234;9.326;2023-02-12T03:20:30;101714.72;;;8.17;72.79
6216;BME280;3141;49.234;9.326;2023-02-12T03:21:17;101712.84;;;8.19;72.63
6216;BME280;3141;49.234;9.326;2023-02-12T03:22:12;101714.63;;;8.19;72.71
6216;BME280;3141;49.234;9.326;2023-02-12T03:23:09;101702.56;;;8.15;72.48
6216;BME280;3141;49.234;9.326;2023-02-12T03:24:01;101709.78;;;8.11;72.40
6216;BME280;3141;49.234;9.326;2023-02-12T03:24:50;101708.00;;;8.12;72.80
6216;BME280;3141;49.234;9.326;2023-02-12T03:25:51;101710.56;;;8.13;72.87
6216;BME280;3141;49.234;9.326;2023-02-12T03:26:48;101710.56;;;8.13;72.69
6216;BME280;3141;49.234;9.326;2023-02-12T03:27:36;101709.88;;;8.10;72.77
6216;BME280;3141;49.234;9.326;2023-02-12T03:28:31;101713.28;;;8.12;72.97
6216;BME280;3141;49.234;9.326;2023-02-12T03:29:14;101709.69;;;8.13;72.77
6216;BME280;3141;49.234;9.326;2023-02-12T03:29:56;101714.47;;;8.06;72.84
6216;BME280;3141;49.234;9.326;2023-02-12T03:30:58;101709.88;;;8.10;73.17
6216;BME280;3141;49.234;9.326;2023-02-12T03:31:55;101725.50;;;8.13;72.60
6216;BME280;3141;49.234;9.326;2023-02-12T03:32:48;101713.28;;;8.12;72.92
6216;BME280;3141;49.234;9.326;2023-02-12T03:34:03;101724.00;;;8.09;72.81
6216;BME280;3141;49.234;9.326;2023-02-12T03:35:43;101716.88;;;7.81;74.27
6216;BME280;3141;49.234;9.326;2023-02-12T03:36:46;101713.19;;;7.84;74.47
6216;BME280;3141;49.234;9.326;2023-02-12T03:37:34;101713.75;;;7.89;74.31
6216;BME280;3141;49.234;9.326;2023-02-12T03:39:11;101713.91;;;8.01;73.86
6216;BME280;3141;49.234;9.326;2023-02-12T03:40:59;101713.47;;;8.09;73.50
6216;BME280;3141;49.234;9.326;2023-02-12T03:41:50;101714.97;;;8.13;73.20
6216;BME280;3141;49.234;9.326;2023-02-12T03:43:00;101717.78;;;8.10;73.13
6216;BME280;3141;49.234;9.326;2023-02-12T03:43:51;101715.91;;;8.12;73.08
6216;BME280;3141;49.234;9.326;2023-02-12T03:44:55;101711.41;;;8.14;72.95
6216;BME280;3141;49.234;9.326;2023-02-12T03:46:00;101719.06;;;8.03;73.21
6216;BME280;3141;49.234;9.326;2023-02-12T03:47:52;101722.03;;;7.83;74.27
6216;BME280;3141;49.234;9.326;2023-02-12T03:49:12;101716.09;;;7.79;74.74
6216;BME280;3141;49.234;9.326;2023-02-12T03:50:32;101717.69;;;7.82;74.52
6216;BME280;3141;49.234;9.326;2023-02-12T03:51:22;101719.03;;;7.89;74.66
6216;BME280;3141;49.234;9.326;2023-02-12T03:52:08;101719.88;;;7.89;74.33
6216;BME280;3141;49.234;9.326;2023-02-12T03:52:50;101716.97;;;7.94;74.21
6216;BME280;3141;49.234;9.326;2023-02-12T03:53:32;101716.63;;;8.00;74.01
6216;BME280;3141;49.234;9.326;2023-02-12T03:54:17;101715.78;;;7.99;74.01
6216;BME280;3141;49.234;9.326;2023-02-12T03:55:01;101714.00;;;8.00;74.04
6216;BME280;3141;49.234;9.326;2023-02-12T03:55:47;101714.84;;;8.00;73.83
6216;BME280;3141;49.234;9.326;2023-02-12T03:56:41;101715.69;;;8.01;73.87
6216;BME280;3141;49.234;9.326;2023-02-12T03:57:27;101720.78;;;8.04;73.73
6216;BME280;3141;49.234;9.326;2023-02-12T03:58:18;101715.53;;;8.04;73.61
6216;BME280;3141;49.234;9.326;2023-02-12T03:59:03;101715.53;;;8.04;73.72
6216;BME280;3141;49.234;9.326;2023-02-12T03:59:46;101714.75;;;8.02;73.54
6216;BME280;3141;49.234;9.326;2023-02-12T04:00:29;101717.41;;;8.02;73.71
6216;BME280;3141;49.234;9.326;2023-02-12T04:01:12;101709.13;;;8.08;73.45
6216;BME280;3141;49.234;9.326;2023-02-12T04:01:57;101716.53;;;8.01;73.61
6216;BME280;3141;49.234;9.326;2023-02-12T04:02:41;101718.22;;;8.02;73.47
6216;BME280;3141;49.234;9.326;2023-02-12T04:03:24;101717.22;;;8.05;73.40
6216;BME280;3141;49.234;9.326;2023-02-12T04:04:07;101713.06;;;8.01;73.47
6216;BME280;3141;49.234;9.326;2023-02-12T04:04:50;101719.16;;;8.01;73.55
6216;BME280;3141;49.234;9.326;2023-02-12T04:05:33;101711.94;;;8.05;73.67
6216;BME280;3141;49.234;9.326;2023-02-12T04:06:24;101717.06;;;7.92;73.84
6216;BME280;3141;49.234;9.326;2023-02-12T04:07:06;101721.50;;;7.92;73.83
6216;BME280;3141;49.234;9.326;2023-02-12T04:07:50;101719.59;;;7.94;74.10
6216;BME280;3141;49.234;9.326;2023-02-12T04:08:33;101712.47;;;7.96;73.86
6216;BME280;3141;49.234;9.326;2023-02-12T04:09:16;101725.66;;;7.96;73.80
6216;BME280;3141;49.234;9.326;2023-02-12T04:09:59;101722.81;;;7.99;73.90
6216;BME280;3141;49.234;9.326;2023-02-12T04:10:55;101723.59;;;8.01;73.82
6216;BME280;3141;49.234;9.326;2023-02-12T04:12:56;101730.09;;;8.09;73.52
6216;BME280;3141;49.234;9.326;2023-02-12T04:15:01;101731.81;;;8.10;73.37
6216;BME280;3141;49.234;9.326;2023-02-12T04:16:00;101733.41;;;8.13;73.40
6216;BME280;3141;49.234;9.326;2023-02-12T04:16:53;101727.03;;;8.17;73.02
6216;BME280;3141;49.234;9.326;2023-02-12T04:17:56;101732.28;;;8.17;73.12
6216;BME280;3141;49.234;9.326;2023-02-12T04:18:42;101728.31;;;8.10;73.12
6216;BME280;3141;49.234;9.326;2023-02-12T04:20:53;101726.69;;;7.93;74.23
6216;BME280;3141;49.234;9.326;2023-02-12T04:27:50;101737.31;;;7.92;74.37
6216;BME280;3141;49.234;9.326;2023-02-12T04:28:49;101738.81;;;7.96;74.13
6216;BME280;3141;49.234;9.326;2023-02-12T04:30:04;101736.94;;;7.98;74.09
6216;BME280;3141;49.234;9.326;2023-02-12T04:30:59;101735.84;;;8.02;74.01
6216;BME280;3141;49.234;9.326;2023-02-12T04:31:52;101746.19;;;8.05;73.78
6216;BME280;3141;49.234;9.326;2023-02-12T04:32:42;101739.03;;;8.07;73.97
6216;BME280;3141;49.234;9.326;2023-02-12T04:33:32;101742.59;;;8.06;73.82
6216;BME280;3141;49.234;9.326;2023-02-12T04:34:25;101739.13;;;8.05;74.01
6216;BME280;3141;49.234;9.326;2023-02-12T04:36:26;101737.13;;;7.95;74.45
6216;BME280;3141;49.234;9.326;2023-02-12T04:37:25;101738.81;;;7.96;74.52
6216;BME280;3141;49.234;9.326;2023-02-12T04:38:22;101734.03;;;8.02;74.32
6216;BME280;3141;49.234;9.326;2023-02-12T04:39:12;101736.41;;;8.07;74.04
6216;BME280;3141;49.234;9.326;2023-02-12T04:39:58;101734.69;;;8.06;74.12
6216;BME280;3141;49.234;9.326;2023-02-12T04:40:41;101733.19;;;8.02;74.08
6216;BME280;3141;49.234;9.326;2023-02-12T04:41:24;101730.38;;;8.05;74.06
6216;BME280;3141;49.234;9.326;2023-02-12T04:42:07;101731.13;;;8.07;73.82
6216;BME280;3141;49.234;9.326;2023-02-12T04:42:51;101730.19;;;8.08;73.81
6216;BME280;3141;49.234;9.326;2023-02-12T04:43:35;101736.22;;;8.10;73.79
6216;BME280;3141;49.234;9.326;2023-02-12T04:44:26;101739.63;;;8.12;73.67
6216;BME280;3141;49.234;9.326;2023-02-12T04:45:10;101736.41;;;8.07;73.90
6216;BME280;3141;49.234;9.326;2023-02-12T04:45:53;101734.22;;;7.99;73.94
6216;BME280;3141;49.234;9.326;2023-02-12T04:46:35;101733.28;;;8.00;74.34